createdAt,value
2022-12-11T00:00:40.241Z,8.23
2022-12-11T00:03:11.375Z,9.33
2022-12-11T00:05:41.524Z,9.33
2022-12-11T00:08:08.339Z,9.63
2022-12-11T00:10:37.956Z,8.40
2022-12-11T00:13:05.457Z,8.73
2022-12-11T00:15:32.573Z,8.57
2022-12-11T00:17:59.223Z,8.83
2022-12-11T00:20:25.941Z,8.83
2022-12-11T00:22:52.588Z,9.53
2022-12-11T00:25:19.286Z,8.97
2022-12-11T00:27:47.327Z,9.20
2022-12-11T00:30:14.773Z,9.37
2022-12-11T00:32:41.673Z,9.63
2022-12-11T00:35:09.206Z,9.07
2022-12-11T00:37:36.083Z,9.27
2022-12-11T00:40:02.867Z,9.03
2022-12-11T00:42:29.731Z,9.17
2022-12-11T00:44:56.510Z,8.90
2022-12-11T00:47:23.237Z,9.27
2022-12-11T00:49:50.343Z,8.73
2022-12-11T00:52:17.923Z,8.47
2022-12-11T00:54:45.049Z,8.87
2022-12-11T00:57:11.777Z,8.90
2022-12-11T00:59:38.771Z,8.77
2022-12-11T01:02:05.418Z,8.70
2022-12-11T01:04:32.518Z,8.83
2022-12-11T01:06:59.146Z,8.93
2022-12-11T01:09:44.366Z,9.10
2022-12-11T01:12:11.044Z,8.57
2022-12-11T01:14:37.820Z,8.67
2022-12-11T01:17:04.625Z,8.57
2022-12-11T01:19:31.378Z,8.80
2022-12-11T01:21:58.079Z,8.60
2022-12-11T01:24:24.719Z,9.50
2022-12-11T01:26:51.405Z,9.20
2022-12-11T01:29:18.084Z,8.80
2022-12-11T01:31:44.718Z,9.70
2022-12-11T01:34:11.376Z,9.00
2022-12-11T01:36:38.177Z,9.97
2022-12-11T01:39:04.859Z,9.50
2022-12-11T01:41:31.575Z,9.77
2022-12-11T01:44:01.620Z,9.17
2022-12-11T01:46:29.043Z,9.67
2022-12-11T01:48:56.243Z,9.40
2022-12-11T01:51:24.199Z,9.30
2022-12-11T01:53:56.219Z,9.30
2022-12-11T01:56:23.165Z,9.83
2022-12-11T01:58:54.458Z,8.90
2022-12-11T02:01:28.165Z,9.57
2022-12-11T02:03:56.203Z,9.17
2022-12-11T02:06:43.775Z,9.37
2022-12-11T02:09:13.667Z,9.63
2022-12-11T02:11:52.166Z,8.67
2022-12-11T02:14:43.502Z,9.67
2022-12-11T02:17:18.056Z,8.27
2022-12-11T02:19:48.761Z,8.97
2022-12-11T02:22:34.778Z,8.53
2022-12-11T02:25:19.274Z,9.13
2022-12-11T02:28:03.126Z,8.80
2022-12-11T02:30:29.973Z,9.63
2022-12-11T02:32:58.457Z,8.67
2022-12-11T02:35:40.128Z,8.43
2022-12-11T02:41:59.287Z,8.67
2022-12-11T02:44:29.814Z,8.60
2022-12-11T02:46:57.028Z,8.53
2022-12-11T02:49:24.703Z,8.77
2022-12-11T02:51:52.916Z,9.30
2022-12-11T02:54:28.741Z,8.70
2022-12-11T02:57:19.435Z,8.00
2022-12-11T02:59:46.654Z,8.67
2022-12-11T03:02:14.466Z,8.67
2022-12-11T03:04:42.824Z,8.77
2022-12-11T03:07:15.732Z,8.10
2022-12-11T03:09:44.486Z,8.70
2022-12-11T03:12:15.745Z,8.70
2022-12-11T03:14:43.049Z,8.53
2022-12-11T03:17:19.570Z,8.73
2022-12-11T03:20:06.949Z,9.03
2022-12-11T03:22:39.491Z,8.23
2022-12-11T03:25:32.438Z,7.63
2022-12-11T03:28:16.513Z,7.70
2022-12-11T03:30:44.179Z,7.93
2022-12-11T03:33:26.461Z,7.83
2022-12-11T03:35:59.295Z,7.83
2022-12-11T03:38:28.995Z,8.57
2022-12-11T03:40:58.306Z,8.07
2022-12-11T03:43:25.404Z,7.83
2022-12-11T03:45:52.444Z,7.83
2022-12-11T03:48:19.741Z,7.73
2022-12-11T03:50:47.258Z,8.07
2022-12-11T03:53:14.390Z,8.17
2022-12-11T03:55:41.912Z,8.10
2022-12-11T03:58:08.608Z,7.87
2022-12-11T04:00:35.347Z,7.53
2022-12-11T04:03:14.732Z,8.00
2022-12-11T04:05:43.639Z,8.00
2022-12-11T04:08:10.815Z,8.23
2022-12-11T04:10:37.653Z,8.23
2022-12-11T04:13:04.430Z,7.90
2022-12-11T04:15:31.212Z,8.30
2022-12-11T04:18:16.522Z,7.47
2022-12-11T04:21:01.799Z,8.00
2022-12-11T04:23:46.903Z,7.40
2022-12-11T04:26:23.042Z,7.40
2022-12-11T04:28:50.201Z,8.50
2022-12-11T04:31:20.278Z,7.80
2022-12-11T04:33:47.461Z,7.93
2022-12-11T04:36:14.813Z,8.23
2022-12-11T04:38:41.751Z,7.93
2022-12-11T04:41:10.660Z,7.50
2022-12-11T04:43:38.015Z,8.10
2022-12-11T04:46:10.283Z,8.13
2022-12-11T04:48:37.951Z,7.53
2022-12-11T04:51:05.528Z,8.43
2022-12-11T04:53:32.577Z,8.20
2022-12-11T04:55:59.372Z,8.20
2022-12-11T04:58:26.937Z,7.20
2022-12-11T05:00:54.500Z,7.40
2022-12-11T05:03:21.248Z,8.40
2022-12-11T05:05:52.239Z,7.60
2022-12-11T05:08:20.137Z,7.03
2022-12-11T05:10:58.889Z,7.20
2022-12-11T05:13:26.626Z,6.93
2022-12-11T05:15:53.509Z,7.23
2022-12-11T05:18:20.306Z,6.77
2022-12-11T05:20:58.378Z,7.27
2022-12-11T05:23:25.788Z,6.73
2022-12-11T05:25:56.880Z,7.30
2022-12-11T05:28:27.798Z,7.00
2022-12-11T05:31:03.804Z,7.17
2022-12-11T05:33:30.832Z,6.90
2022-12-11T05:35:57.843Z,7.33
2022-12-11T05:38:24.487Z,6.83
2022-12-11T05:41:01.960Z,7.33
2022-12-11T05:43:31.314Z,7.00
2022-12-11T05:46:09.188Z,6.93
2022-12-11T05:48:36.626Z,7.00
2022-12-11T05:51:04.398Z,7.60
2022-12-11T05:53:31.280Z,7.03
2022-12-11T05:56:06.428Z,6.93
2022-12-11T05:58:34.098Z,7.20
2022-12-11T06:01:01.362Z,7.40
2022-12-11T06:03:28.469Z,7.00
2022-12-11T06:05:55.136Z,7.43
2022-12-11T06:08:21.809Z,6.90
2022-12-11T06:10:49.432Z,7.73
2022-12-11T06:13:16.625Z,7.23
2022-12-11T06:15:43.277Z,6.90
2022-12-11T06:18:09.923Z,7.27
2022-12-11T06:20:37.000Z,7.97
2022-12-11T06:23:03.991Z,8.10
2022-12-11T06:25:31.314Z,7.73
2022-12-11T06:27:58.915Z,7.80
2022-12-11T06:30:38.713Z,8.30
2022-12-11T06:33:07.294Z,8.50
2022-12-11T06:35:40.069Z,8.07
2022-12-11T06:38:08.548Z,8.17
2022-12-11T06:40:35.173Z,8.80
2022-12-11T06:43:01.811Z,7.70
2022-12-11T06:45:28.446Z,8.57
2022-12-11T06:47:55.650Z,8.23
2022-12-11T06:50:22.318Z,7.80
2022-12-11T06:52:49.009Z,8.53
2022-12-11T06:55:15.727Z,8.67
2022-12-11T06:57:42.440Z,8.57
2022-12-11T07:00:09.699Z,9.20
2022-12-11T07:02:36.364Z,9.10
2022-12-11T07:05:03.207Z,9.23
2022-12-11T07:07:30.264Z,8.93
2022-12-11T07:09:56.886Z,8.37
2022-12-11T07:12:23.521Z,8.50
2022-12-11T07:14:50.320Z,8.73
2022-12-11T07:17:16.949Z,8.93
2022-12-11T07:19:43.642Z,8.77
2022-12-11T07:22:10.361Z,9.17
2022-12-11T07:24:37.074Z,9.03
2022-12-11T07:27:04.732Z,8.90
2022-12-11T07:29:31.360Z,8.07
2022-12-11T07:31:58.165Z,8.87
2022-12-11T07:34:24.926Z,9.03
2022-12-11T07:36:51.615Z,8.33
2022-12-11T07:39:18.239Z,8.23
2022-12-11T07:41:45.940Z,8.67
2022-12-11T07:44:12.931Z,8.97
2022-12-11T07:46:40.146Z,8.53
2022-12-11T07:49:07.070Z,8.57
2022-12-11T07:51:36.103Z,8.47
2022-12-11T07:54:05.882Z,7.97
2022-12-11T07:56:33.264Z,7.97
2022-12-11T07:59:01.351Z,8.73
2022-12-11T08:01:30.016Z,8.27
2022-12-11T08:03:57.079Z,8.23
2022-12-11T08:06:31.783Z,8.77
2022-12-11T08:08:59.495Z,8.90
2022-12-11T08:11:26.983Z,8.23
2022-12-11T08:13:54.341Z,7.80
2022-12-11T08:16:21.565Z,8.60
2022-12-11T08:18:48.602Z,8.00
2022-12-11T08:21:20.673Z,7.93
2022-12-11T08:23:47.997Z,8.43
2022-12-11T08:26:19.871Z,8.60
2022-12-11T08:28:46.683Z,7.53
2022-12-11T08:31:14.950Z,8.50
2022-12-11T08:33:42.241Z,8.20
2022-12-11T08:36:11.828Z,7.80
2022-12-11T08:38:39.220Z,7.40
2022-12-11T08:41:14.414Z,7.73
2022-12-11T08:43:41.430Z,7.83
2022-12-11T08:46:08.955Z,7.67
2022-12-11T08:48:37.192Z,7.50
2022-12-11T08:51:05.648Z,8.23
2022-12-11T08:53:32.989Z,7.97
2022-12-11T08:56:08.357Z,7.57
2022-12-11T08:58:35.710Z,7.40
2022-12-11T09:01:36.269Z,7.50
2022-12-11T09:04:03.213Z,7.50
2022-12-11T09:06:30.591Z,8.13
2022-12-11T09:08:59.860Z,7.97
2022-12-11T09:11:29.864Z,7.93
2022-12-11T09:13:56.588Z,7.90
2022-12-11T09:16:25.625Z,8.27
2022-12-11T09:18:54.131Z,8.37
2022-12-11T09:21:22.932Z,8.20
2022-12-11T09:23:52.227Z,8.27
2022-12-11T09:26:20.272Z,8.40
2022-12-11T09:28:47.411Z,7.63
2022-12-11T09:31:16.651Z,7.53
2022-12-11T09:33:43.778Z,8.23
2022-12-11T09:36:11.736Z,8.60
2022-12-11T09:38:38.708Z,7.77
2022-12-11T09:41:40.697Z,8.13
2022-12-11T09:44:30.605Z,8.40
2022-12-11T09:46:58.153Z,8.10
2022-12-11T09:49:30.902Z,8.40
2022-12-11T09:52:25.924Z,8.13
2022-12-11T09:54:55.337Z,8.23
2022-12-11T09:57:35.014Z,7.97
2022-12-11T10:00:14.321Z,8.20
2022-12-11T10:02:47.170Z,7.63
2022-12-11T10:05:17.022Z,8.17
2022-12-11T10:07:56.139Z,7.40
2022-12-11T10:10:44.504Z,8.07
2022-12-11T10:13:17.077Z,8.00
2022-12-11T10:15:48.385Z,7.60
2022-12-11T10:18:21.208Z,7.70
2022-12-11T10:20:50.152Z,8.10
2022-12-11T10:23:19.424Z,7.70
2022-12-11T10:26:18.865Z,7.67
2022-12-11T10:28:45.606Z,8.13
2022-12-11T10:31:31.593Z,7.73
2022-12-11T10:34:09.873Z,7.93
2022-12-11T10:36:40.034Z,7.37
2022-12-11T10:39:15.126Z,7.90
2022-12-11T10:41:44.198Z,7.90
2022-12-11T10:44:19.601Z,8.07
2022-12-11T10:46:47.890Z,8.60
2022-12-11T10:49:26.565Z,8.33
2022-12-11T10:51:54.448Z,8.17
2022-12-11T10:54:30.012Z,8.17
2022-12-11T10:56:57.005Z,8.27
2022-12-11T10:59:33.576Z,8.20
2022-12-11T11:02:00.362Z,8.43
2022-12-11T11:04:32.651Z,8.00
2022-12-11T11:07:04.648Z,8.83
2022-12-11T11:09:35.253Z,9.13
2022-12-11T11:12:07.648Z,9.60
2022-12-11T11:14:34.644Z,9.10
2022-12-11T11:17:01.486Z,9.13
2022-12-11T11:19:33.651Z,8.87
2022-12-11T11:22:17.789Z,9.07
2022-12-11T11:24:46.919Z,9.27
2022-12-11T11:27:27.145Z,9.50
2022-12-11T11:29:56.765Z,9.03
2022-12-11T11:32:25.330Z,9.97
2022-12-11T11:34:53.665Z,8.87
2022-12-11T11:37:32.315Z,9.87
2022-12-11T11:40:10.199Z,9.13
2022-12-11T11:43:06.249Z,8.60
2022-12-11T11:45:57.828Z,8.90
2022-12-11T11:48:29.012Z,8.97
2022-12-11T11:50:57.367Z,9.40
2022-12-11T11:53:29.265Z,9.10
2022-12-11T11:56:03.715Z,8.77
2022-12-11T11:58:56.184Z,9.10
2022-12-11T12:01:23.095Z,8.87
2022-12-11T12:03:50.229Z,8.70
2022-12-11T12:06:50.541Z,8.97
2022-12-11T12:09:33.500Z,9.23
2022-12-11T12:12:24.859Z,9.30
2022-12-11T12:15:13.764Z,8.93
2022-12-11T12:17:51.996Z,8.43
2022-12-11T12:20:27.925Z,8.73
2022-12-11T12:23:18.964Z,8.80
2022-12-11T12:25:56.287Z,8.47
2022-12-11T12:28:28.775Z,8.07
2022-12-11T12:31:20.249Z,8.17
2022-12-11T12:34:05.040Z,8.17
2022-12-11T12:36:46.325Z,8.63
2022-12-11T12:39:34.626Z,8.57
2022-12-11T12:42:07.045Z,9.17
2022-12-11T12:44:48.010Z,8.50
2022-12-11T12:47:17.956Z,7.97
2022-12-11T12:49:50.443Z,8.40
2022-12-11T12:52:23.252Z,8.40
2022-12-11T12:55:14.438Z,8.33
2022-12-11T12:58:24.251Z,7.77
2022-12-11T13:00:51.203Z,7.93
2022-12-11T13:03:30.277Z,8.50
2022-12-11T13:06:05.099Z,8.63
2022-12-11T13:08:42.426Z,8.73
2022-12-11T13:13:42.778Z,8.80
2022-12-11T13:16:25.556Z,8.43
2022-12-11T13:18:53.339Z,8.63
2022-12-11T13:21:38.277Z,7.93
2022-12-11T13:24:45.570Z,8.60
2022-12-11T13:27:27.186Z,8.30
2022-12-11T13:30:25.429Z,8.17
2022-12-11T13:33:17.914Z,8.43
2022-12-11T13:35:44.961Z,8.37
2022-12-11T13:38:20.153Z,9.00
2022-12-11T13:40:52.941Z,8.57
2022-12-11T13:43:24.339Z,8.80
2022-12-11T13:45:53.070Z,8.93
2022-12-11T13:48:39.408Z,9.23
2022-12-11T13:51:06.784Z,9.30
2022-12-11T13:53:33.685Z,9.17
2022-12-11T13:56:06.579Z,8.93
2022-12-11T13:58:40.068Z,9.23
2022-12-11T14:01:30.801Z,9.07
2022-12-11T14:04:01.735Z,9.33
2022-12-11T14:06:28.898Z,9.97
2022-12-11T14:08:57.916Z,9.50
2022-12-11T14:11:30.994Z,9.00
2022-12-11T14:13:59.049Z,9.57
2022-12-11T14:16:27.082Z,9.63
2022-12-11T14:18:55.293Z,9.37
2022-12-11T14:21:24.731Z,9.60
2022-12-11T14:24:00.045Z,9.83
2022-12-11T14:26:31.808Z,9.43
2022-12-11T14:28:58.747Z,9.93
2022-12-11T14:31:36.472Z,10.03
2022-12-11T14:34:09.394Z,9.70
2022-12-11T14:36:36.646Z,9.53
2022-12-11T14:39:07.606Z,9.67
2022-12-11T14:41:36.911Z,9.30
2022-12-11T14:44:05.004Z,10.13
2022-12-11T14:46:43.192Z,9.27
2022-12-11T14:49:29.415Z,9.43
2022-12-11T14:51:57.796Z,9.27
2022-12-11T14:54:34.160Z,8.77
2022-12-11T14:57:02.327Z,9.23
2022-12-11T14:59:32.213Z,9.63
2022-12-11T15:02:21.248Z,9.20
2022-12-11T15:05:11.749Z,9.50
2022-12-11T15:07:40.412Z,9.20
2022-12-11T15:10:21.135Z,9.03
2022-12-11T15:12:47.971Z,8.90
2022-12-11T15:15:16.320Z,9.40
2022-12-11T15:17:46.094Z,9.33
2022-12-11T15:20:29.708Z,9.07
2022-12-11T15:22:59.012Z,9.93
2022-12-11T15:25:31.357Z,9.07
2022-12-11T15:28:01.334Z,9.10
2022-12-11T15:30:31.304Z,9.17
2022-12-11T15:33:24.167Z,10.03
2022-12-11T15:35:56.918Z,9.37
2022-12-11T15:38:42.220Z,9.40
2022-12-11T15:41:15.826Z,9.63
2022-12-11T15:43:42.836Z,9.50
2022-12-11T15:46:09.936Z,10.20
2022-12-11T15:48:36.966Z,9.90
2022-12-11T15:51:03.946Z,9.90
2022-12-11T15:53:30.931Z,10.63
2022-12-11T15:55:59.612Z,10.30
2022-12-11T15:58:27.445Z,10.67
2022-12-11T16:00:55.009Z,10.73
2022-12-11T16:03:23.572Z,9.93
2022-12-11T16:05:51.867Z,11.13
2022-12-11T16:08:21.293Z,10.20
2022-12-11T16:10:48.761Z,10.60
2022-12-11T16:13:15.612Z,11.13
2022-12-11T16:15:45.795Z,10.70
2022-12-11T16:18:16.042Z,11.00
2022-12-11T16:20:44.512Z,11.13
2022-12-11T16:23:12.952Z,11.80
2022-12-11T16:25:41.556Z,11.30
2022-12-11T16:28:09.183Z,11.07
2022-12-11T16:30:37.482Z,11.40
2022-12-11T16:33:11.798Z,11.90
2022-12-11T16:35:39.528Z,12.10
2022-12-11T16:38:06.558Z,11.63
2022-12-11T16:40:33.473Z,12.47
2022-12-11T16:43:08.819Z,11.90
2022-12-11T16:45:36.556Z,12.30
2022-12-11T16:48:05.210Z,12.47
2022-12-11T16:50:32.508Z,12.50
2022-12-11T16:52:59.538Z,12.60
2022-12-11T16:55:26.498Z,12.20
2022-12-11T16:57:53.295Z,11.93
2022-12-11T17:00:20.613Z,11.70
2022-12-11T17:02:47.771Z,11.73
2022-12-11T17:05:15.069Z,12.03
2022-12-11T17:07:41.979Z,12.00
2022-12-11T17:10:09.193Z,11.83
2022-12-11T17:12:36.181Z,11.93
2022-12-11T17:15:03.341Z,12.03
2022-12-11T17:17:30.221Z,12.50
2022-12-11T17:19:57.012Z,11.67
2022-12-11T17:22:23.868Z,11.60
2022-12-11T17:24:50.743Z,11.40
2022-12-11T17:27:17.522Z,12.17
2022-12-11T17:29:44.407Z,11.27
2022-12-11T17:32:11.643Z,12.43
2022-12-11T17:34:38.876Z,11.97
2022-12-11T17:37:06.167Z,12.03
2022-12-11T17:39:33.310Z,11.67
2022-12-11T17:42:00.617Z,10.93
2022-12-11T17:44:30.599Z,11.43
2022-12-11T17:47:02.661Z,11.60
2022-12-11T17:49:33.186Z,11.60
2022-12-11T17:51:59.974Z,11.47
2022-12-11T17:54:27.024Z,12.10
2022-12-11T17:56:53.936Z,11.93
2022-12-11T17:59:20.895Z,11.80
2022-12-11T18:01:47.671Z,11.57
2022-12-11T18:04:14.639Z,11.60
2022-12-11T18:06:41.577Z,11.43
2022-12-11T18:09:08.450Z,11.73
2022-12-11T18:11:35.294Z,11.00
2022-12-11T18:14:02.332Z,10.90
2022-12-11T18:16:34.868Z,11.00
2022-12-11T18:19:01.979Z,12.07
2022-12-11T18:21:31.749Z,11.03
2022-12-11T18:23:58.741Z,10.97
2022-12-11T18:26:25.621Z,11.77
2022-12-11T18:28:53.184Z,11.50
2022-12-11T18:31:20.815Z,11.43
2022-12-11T18:33:47.947Z,11.67
2022-12-11T18:36:16.280Z,11.67
2022-12-11T18:38:43.448Z,11.33
2022-12-11T18:41:12.383Z,11.77
2022-12-11T18:43:39.203Z,11.67
2022-12-11T18:46:12.793Z,11.57
2022-12-11T18:48:40.449Z,11.90
2022-12-11T18:51:12.686Z,12.00
2022-12-11T18:53:42.643Z,11.70
2022-12-11T18:56:16.323Z,12.63
2022-12-11T18:58:43.190Z,12.40
2022-12-11T19:01:34.937Z,12.17
2022-12-11T19:04:05.543Z,13.40
2022-12-11T19:06:35.780Z,12.63
2022-12-11T19:09:04.938Z,13.07
2022-12-11T19:11:33.861Z,13.00
2022-12-11T19:14:00.639Z,12.47
2022-12-11T19:16:33.774Z,12.83
2022-12-11T19:19:04.086Z,13.07
2022-12-11T19:21:31.463Z,12.97
2022-12-11T19:23:59.406Z,12.67
2022-12-11T19:26:26.231Z,12.03
2022-12-11T19:28:53.519Z,13.43
2022-12-11T19:31:22.805Z,13.93
2022-12-11T19:33:50.277Z,12.37
2022-12-11T19:36:19.471Z,12.70
2022-12-11T19:38:46.333Z,13.33
2022-12-11T19:41:16.858Z,13.33
2022-12-11T19:43:43.811Z,13.53
2022-12-11T19:46:11.511Z,12.60
2022-12-11T19:48:40.862Z,12.37
2022-12-11T19:51:13.329Z,12.43
2022-12-11T19:53:40.959Z,12.33
2022-12-11T19:56:08.326Z,12.63
2022-12-11T19:58:35.050Z,13.10
2022-12-11T20:01:03.213Z,12.60
2022-12-11T20:03:30.782Z,13.60
2022-12-11T20:06:06.704Z,12.90
2022-12-11T20:08:49.993Z,13.07
2022-12-11T20:11:19.020Z,13.07
2022-12-11T20:13:48.055Z,13.90
2022-12-11T20:16:18.023Z,13.47
2022-12-11T20:18:46.032Z,13.40
2022-12-11T20:21:15.852Z,13.73
2022-12-11T20:23:43.608Z,13.60
2022-12-11T20:26:13.420Z,13.37
2022-12-11T20:28:40.348Z,13.30
2022-12-11T20:31:19.526Z,13.87
2022-12-11T20:33:47.971Z,12.90
2022-12-11T20:36:16.382Z,12.67
2022-12-11T20:38:46.220Z,13.67
2022-12-11T20:41:14.943Z,14.03
2022-12-11T20:43:44.037Z,13.30
2022-12-11T20:46:13.267Z,12.87
2022-12-11T20:48:41.030Z,13.10
2022-12-11T20:51:09.764Z,12.87
2022-12-11T20:53:37.697Z,12.27
2022-12-11T20:56:14.538Z,13.40
2022-12-11T20:58:41.662Z,12.13
2022-12-11T21:01:16.985Z,12.07
2022-12-11T21:03:44.153Z,12.63
2022-12-11T21:06:31.130Z,11.97
2022-12-11T21:08:59.973Z,12.53
2022-12-11T21:11:27.392Z,12.30
2022-12-11T21:13:54.192Z,12.80
2022-12-11T21:16:23.486Z,11.90
2022-12-11T21:18:50.361Z,11.87
2022-12-11T21:21:17.536Z,12.30
2022-12-11T21:23:48.594Z,11.40
2022-12-11T21:26:16.321Z,11.37
2022-12-11T21:28:44.153Z,12.47
2022-12-11T21:31:14.799Z,12.10
2022-12-11T21:33:41.995Z,12.17
2022-12-11T21:36:11.103Z,11.47
2022-12-11T21:38:41.791Z,11.47
2022-12-11T21:41:13.906Z,11.60
2022-12-11T21:44:14.272Z,10.90
2022-12-11T21:46:29.529Z,12.10
2022-12-11T21:48:56.397Z,11.87
2022-12-11T21:51:29.769Z,12.37
2022-12-11T21:54:01.107Z,11.63
2022-12-11T21:56:28.938Z,11.50
2022-12-11T21:58:56.139Z,11.37
2022-12-11T22:01:22.985Z,11.37
2022-12-11T22:03:50.777Z,11.70
2022-12-11T22:06:17.824Z,12.37
2022-12-11T22:08:46.154Z,11.73
2022-12-11T22:11:13.353Z,11.53
2022-12-11T22:13:40.246Z,11.10
2022-12-11T22:16:07.131Z,10.93
2022-12-11T22:18:34.089Z,11.33
2022-12-11T22:21:00.891Z,11.20
2022-12-11T22:23:27.851Z,10.67
2022-12-11T22:25:54.924Z,11.07
2022-12-11T22:28:21.786Z,10.80
2022-12-11T22:30:49.060Z,11.17
2022-12-11T22:33:17.881Z,10.27
2022-12-11T22:35:44.588Z,10.53
2022-12-11T22:38:11.302Z,11.37
2022-12-11T22:40:41.551Z,10.80
2022-12-11T22:43:08.304Z,10.57
2022-12-11T22:45:39.713Z,11.70
2022-12-11T22:48:07.769Z,10.43
2022-12-11T22:50:36.655Z,10.77
2022-12-11T22:53:04.438Z,11.17
2022-12-11T22:55:31.564Z,10.73
2022-12-11T22:57:58.379Z,12.17
2022-12-11T23:00:25.182Z,11.23
2022-12-11T23:02:52.191Z,10.70
2022-12-11T23:05:19.110Z,10.23
2022-12-11T23:07:46.017Z,10.83
2022-12-11T23:10:12.934Z,11.30
2022-12-11T23:12:39.730Z,10.70
2022-12-11T23:15:07.786Z,11.20
2022-12-11T23:17:34.616Z,11.20
2022-12-11T23:20:03.679Z,10.83
2022-12-11T23:22:30.966Z,10.73
2022-12-11T23:24:58.090Z,10.90
2022-12-11T23:27:24.751Z,11.07
2022-12-11T23:29:51.839Z,10.90
2022-12-11T23:32:18.534Z,10.87
2022-12-11T23:34:45.415Z,10.70
2022-12-11T23:37:12.117Z,11.07
2022-12-11T23:39:39.999Z,10.90
2022-12-11T23:42:06.664Z,10.97
2022-12-11T23:44:33.539Z,10.77
2022-12-11T23:47:00.572Z,11.40
2022-12-11T23:49:27.342Z,11.03
2022-12-11T23:51:54.015Z,10.90
2022-12-11T23:54:20.748Z,10.70
2022-12-11T23:56:47.447Z,10.53
2022-12-11T23:59:14.782Z,10.30
